Huvudsida
METAR-TAF:

METAR-TAF

Flygplatser :

Port of Spain, Trinidad, Trinidad och Tobago

latitud: 10-37N, longitud: 061-21W, höjd: 12 m

Aktuellt väderrapport

Denna rapport gjordes för 55 minuter sedan, klockan 11:00 UTC
Vind 6 kt från ost
Temperatur 25°C
Fuktighet 94%
Tryck 1015 hPa
Sikt 10 km eller mer
Få moln på en höjd av 1600 ft

METAR: TTPP 241100Z 10006KT 9999 FEW016 25/24 Q1015 NOSIG

Tid: 07:55 (11:55 UTC)

Väderprognos

Denna rapport gjordes för 1 timme och 55 minuter sedan, klockan 10:00 UTC
Prognos gäller från 24 kl. 12 UTC till 25 kl. 12 UTC
Vind 5 kt varierande vindriktning
Sikt 10 km eller mer
Spridda moln på en höjd av 1600 ft
Blir
från 24 kl. 14 UTC till 24 kl. 16 UTC
Vind 10 kt från ost
Spridda moln på en höjd av 2000 ft
Blir
från 25 kl. 02 UTC till 25 kl. 05 UTC
Vind kt från nord
Få moln på en höjd av 1800 ft

TAF: TTPP 241000Z 2412/2512 VRB05KT 9999 SCT016 BECMG 2414/2416 09010KT SCT020 BECMG 2502/2505 00000KT FEW018

Aktuella väderrapporter och prognoser från 4000 flygplatser (METAR- och TAF-rapporter).

De tillgängliga stationerna syns som gula och röda prickar på kartan.

För musen över prickarna för att se namnen på stationerna.

Klicka sedan för att få väderrapporter och prognoser.

För att ändra kartan: Klicka på de gröna knapparna med ett svart kors på för att zooma in; den gröna knappen med ett streck på för att zooma ut; eller på de gröna pilarna för angränsande kartor.


METAR-TAF: